createdAt,value
2023-05-05T00:01:16.250Z,99726.97
2023-05-05T00:03:43.200Z,99723.88
2023-05-05T00:06:10.123Z,99713.81
2023-05-05T00:08:37.364Z,99712.56
2023-05-05T00:11:04.251Z,99721.50
2023-05-05T00:13:31.529Z,99712.91
2023-05-05T00:15:58.301Z,99714.25
2023-05-05T00:18:25.470Z,99712.31
2023-05-05T00:20:52.442Z,99705.84
2023-05-05T00:23:20.264Z,99696.47
2023-05-05T00:25:47.141Z,99686.34
2023-05-05T00:28:14.082Z,99690.81
2023-05-05T00:30:41.566Z,99689.03
2023-05-05T00:33:09.828Z,99681.50
2023-05-05T00:35:36.761Z,99682.06
2023-05-05T00:38:03.730Z,99692.31
2023-05-05T00:40:31.247Z,99685.28
2023-05-05T00:42:58.158Z,99676.38
2023-05-05T00:45:26.336Z,99678.53
2023-05-05T00:47:59.018Z,99679.00
2023-05-05T00:50:31.386Z,99679.09
2023-05-05T00:53:02.442Z,99676.81
2023-05-05T00:55:33.736Z,99672.69
2023-05-05T00:58:02.338Z,99665.94
2023-05-05T01:00:30.910Z,99658.91
2023-05-05T01:02:59.835Z,99664.22
2023-05-05T01:05:42.448Z,99666.06
2023-05-05T01:08:43.332Z,99663.72
2023-05-05T01:11:18.648Z,99667.19
2023-05-05T01:14:00.993Z,99666.50
2023-05-05T01:16:31.337Z,99677.78
2023-05-05T01:19:01.210Z,99669.47
2023-05-05T01:21:33.711Z,99666.63
2023-05-05T01:24:15.458Z,99664.53
2023-05-05T01:27:19.784Z,99668.94
2023-05-05T01:30:05.470Z,99665.53
2023-05-05T01:32:38.700Z,99667.41
2023-05-05T01:35:38.023Z,99665.66
2023-05-05T01:38:22.363Z,99666.28
2023-05-05T01:40:58.057Z,99659.53
2023-05-05T01:43:29.958Z,99661.84
2023-05-05T01:45:59.437Z,99664.22
2023-05-05T01:48:26.728Z,99664.00
2023-05-05T01:50:54.287Z,99654.13
2023-05-05T01:53:24.397Z,99656.16
2023-05-05T01:55:54.196Z,99656.75
2023-05-05T01:58:23.643Z,99660.19
2023-05-05T02:00:51.778Z,99667.56
2023-05-05T02:03:20.913Z,99656.00
2023-05-05T02:05:50.269Z,99647.91
2023-05-05T02:08:17.929Z,99645.34
2023-05-05T02:10:47.285Z,99648.00
2023-05-05T02:13:15.191Z,99641.75
2023-05-05T02:15:44.303Z,99643.06
2023-05-05T02:18:11.771Z,99647.28
2023-05-05T02:20:40.454Z,99643.03
2023-05-05T02:23:08.438Z,99641.75
2023-05-05T02:25:50.497Z,99634.94
2023-05-05T02:28:35.093Z,99636.28
2023-05-05T02:31:05.991Z,99634.47
2023-05-05T02:33:35.287Z,99635.88
2023-05-05T02:36:11.480Z,99638.59
2023-05-05T02:38:53.206Z,99642.81
2023-05-05T02:41:23.737Z,99642.03
2023-05-05T02:43:54.147Z,99645.47
2023-05-05T02:46:21.901Z,99636.81
2023-05-05T02:48:48.717Z,99643.69
2023-05-05T02:51:15.612Z,99642.41
2023-05-05T02:53:42.779Z,99640.06
2023-05-05T02:56:14.880Z,99633.00
2023-05-05T02:59:00.291Z,99640.88
2023-05-05T03:01:54.874Z,99638.03
2023-05-05T03:04:37.389Z,99639.28
2023-05-05T03:07:12.235Z,99641.84
2023-05-05T03:09:46.778Z,99639.03
2023-05-05T03:12:21.225Z,99642.75
2023-05-05T03:15:15.431Z,99645.13
2023-05-05T03:17:44.381Z,99639.91
2023-05-05T03:20:12.752Z,99640.44
2023-05-05T03:22:42.580Z,99645.22
2023-05-05T03:25:13.038Z,99646.78
2023-05-05T03:27:40.999Z,99645.78
2023-05-05T03:30:09.657Z,99648.16
2023-05-05T03:32:44.766Z,99645.31
2023-05-05T03:35:11.784Z,99646.88
2023-05-05T03:37:38.825Z,99644.25
2023-05-05T03:40:06.345Z,99648.47
2023-05-05T03:42:33.568Z,99640.34
2023-05-05T03:45:00.372Z,99634.88
2023-05-05T03:47:28.107Z,99644.84
2023-05-05T03:49:56.582Z,99642.75
2023-05-05T03:52:23.377Z,99650.66
2023-05-05T03:54:50.540Z,99659.53
2023-05-05T03:57:18.372Z,99661.34
2023-05-05T03:59:45.216Z,99665.31
2023-05-05T04:02:12.896Z,99661.63
2023-05-05T04:04:40.299Z,99662.16
2023-05-05T04:07:07.229Z,99669.25
2023-05-05T04:09:34.038Z,99666.88
2023-05-05T04:12:00.981Z,99666.59
2023-05-05T04:14:28.037Z,99670.22
2023-05-05T04:16:54.949Z,99673.91
2023-05-05T04:19:22.587Z,99671.81
2023-05-05T04:21:49.548Z,99668.13
2023-05-05T04:24:17.150Z,99674.69
2023-05-05T04:26:44.858Z,99675.94
2023-05-05T04:29:12.018Z,99682.53
2023-05-05T04:31:39.517Z,99676.72
2023-05-05T04:34:06.473Z,99673.50
2023-05-05T04:36:33.512Z,99682.38
2023-05-05T04:39:00.690Z,99684.94
2023-05-05T04:41:30.104Z,99677.84
2023-05-05T04:43:58.101Z,99689.66
2023-05-05T04:46:25.747Z,99683.25
2023-05-05T04:48:52.685Z,99695.84
2023-05-05T04:51:20.933Z,99697.63
2023-05-05T04:53:47.772Z,99711.50
2023-05-05T04:56:14.708Z,99711.69
2023-05-05T04:58:41.707Z,99714.78
2023-05-05T05:01:08.554Z,99718.94
2023-05-05T05:03:35.492Z,99715.19
2023-05-05T05:06:02.579Z,99718.63
2023-05-05T05:08:30.372Z,99729.28
2023-05-05T05:10:57.181Z,99727.91
2023-05-05T05:13:24.655Z,99729.19
2023-05-05T05:15:51.956Z,99718.84
2023-05-05T05:18:18.872Z,99725.41
2023-05-05T05:20:47.508Z,99716.97
2023-05-05T05:23:15.377Z,99727.63
2023-05-05T05:25:44.319Z,99724.97
2023-05-05T05:28:12.770Z,99716.53
2023-05-05T05:30:45.894Z,99729.03
2023-05-05T05:33:12.874Z,99730.00
2023-05-05T05:35:40.705Z,99728.59
2023-05-05T05:38:08.289Z,99733.22
2023-05-05T05:40:35.485Z,99741.53
2023-05-05T05:43:02.720Z,99744.31
2023-05-05T05:45:30.054Z,99738.44
2023-05-05T05:47:57.024Z,99741.22
2023-05-05T05:50:24.217Z,99741.38
2023-05-05T05:52:51.047Z,99729.13
2023-05-05T05:55:18.875Z,99730.56
2023-05-05T05:57:45.625Z,99736.19
2023-05-05T06:00:14.528Z,99732.03
2023-05-05T06:02:46.266Z,99737.34
2023-05-05T06:05:17.244Z,99741.06
2023-05-05T06:07:45.638Z,99742.03
2023-05-05T06:10:26.724Z,99742.66
2023-05-05T06:12:59.640Z,99746.66
2023-05-05T06:15:27.640Z,99748.06
2023-05-05T06:17:54.758Z,99747.09
2023-05-05T06:20:22.750Z,99743.19
2023-05-05T06:22:49.563Z,99750.03
2023-05-05T06:25:17.647Z,99744.28
2023-05-05T06:27:45.249Z,99738.81
2023-05-05T06:30:12.829Z,99737.22
2023-05-05T06:32:39.615Z,99734.38
2023-05-05T06:35:07.100Z,99737.63
2023-05-05T06:37:33.962Z,99740.53
2023-05-05T06:40:00.774Z,99733.44
2023-05-05T06:42:27.771Z,99740.38
2023-05-05T06:44:57.504Z,99742.19
2023-05-05T06:47:24.419Z,99742.38
2023-05-05T06:49:51.325Z,99749.06
2023-05-05T06:52:18.066Z,99751.28
2023-05-05T06:54:44.916Z,99754.00
2023-05-05T06:57:11.834Z,99748.00
2023-05-05T06:59:39.099Z,99754.72
2023-05-05T07:02:06.414Z,99746.06
2023-05-05T07:04:33.188Z,99746.88
2023-05-05T07:07:00.001Z,99749.25
2023-05-05T07:09:26.906Z,99749.91
2023-05-05T07:11:53.608Z,99752.56
2023-05-05T07:14:22.710Z,99753.44
2023-05-05T07:16:51.047Z,99760.16
2023-05-05T07:19:17.906Z,99758.91
2023-05-05T07:21:45.055Z,99752.72
2023-05-05T07:24:11.828Z,99752.41
2023-05-05T07:26:38.752Z,99742.75
2023-05-05T07:29:05.662Z,99743.09
2023-05-05T07:31:32.870Z,99739.38
2023-05-05T07:33:59.664Z,99752.81
2023-05-05T07:36:26.928Z,99743.63
2023-05-05T07:38:54.479Z,99744.09
2023-05-05T07:41:21.935Z,99746.13
2023-05-05T07:43:48.905Z,99742.06
2023-05-05T07:46:15.784Z,99743.97
2023-05-05T07:48:42.880Z,99740.53
2023-05-05T07:51:10.151Z,99742.88
2023-05-05T07:53:37.396Z,99748.47
2023-05-05T07:56:04.339Z,99755.81
2023-05-05T07:58:31.285Z,99752.06
2023-05-05T08:00:59.351Z,99746.13
2023-05-05T08:03:26.624Z,99746.13
2023-05-05T08:05:54.728Z,99747.38
2023-05-05T08:08:21.956Z,99747.09
2023-05-05T08:10:49.930Z,99741.75
2023-05-05T08:13:16.878Z,99733.03
2023-05-05T08:15:43.816Z,99735.56
2023-05-05T08:18:10.713Z,99739.72
2023-05-05T08:20:37.686Z,99733.19
2023-05-05T08:23:04.680Z,99729.91
2023-05-05T08:25:31.619Z,99732.84
2023-05-05T08:27:58.512Z,99736.56
2023-05-05T08:30:25.374Z,99725.03
2023-05-05T08:32:52.181Z,99727.97
2023-05-05T08:35:19.081Z,99733.84
2023-05-05T08:37:45.974Z,99719.97
2023-05-05T08:40:13.650Z,99723.25
2023-05-05T08:42:41.084Z,99723.59
2023-05-05T08:45:09.963Z,99724.81
2023-05-05T08:47:38.382Z,99728.84
2023-05-05T08:50:07.138Z,99728.16
2023-05-05T08:52:42.912Z,99726.91
2023-05-05T08:55:18.189Z,99729.53
2023-05-05T08:57:53.201Z,99734.00
2023-05-05T09:00:21.317Z,99733.34
2023-05-05T09:02:48.833Z,99734.41
2023-05-05T09:05:17.773Z,99730.91
2023-05-05T09:07:45.053Z,99733.72
2023-05-05T09:10:12.557Z,99722.16
2023-05-05T09:12:39.992Z,99735.09
2023-05-05T09:15:13.915Z,99718.34
2023-05-05T09:17:41.897Z,99714.41
2023-05-05T09:20:13.399Z,99712.34
2023-05-05T09:22:42.252Z,99711.78
2023-05-05T09:25:11.681Z,99713.16
2023-05-05T09:27:41.053Z,99720.25
2023-05-05T09:30:09.752Z,99717.59
2023-05-05T09:33:05.044Z,99712.13
2023-05-05T09:35:52.659Z,99711.91
2023-05-05T09:38:20.827Z,99710.06
2023-05-05T09:40:52.493Z,99713.75
2023-05-05T09:43:23.795Z,99714.34
2023-05-05T09:45:51.085Z,99704.91
2023-05-05T09:48:28.804Z,99699.41
2023-05-05T09:50:56.746Z,99702.50
2023-05-05T09:53:25.075Z,99697.94
2023-05-05T09:56:00.259Z,99703.78
2023-05-05T09:58:29.601Z,99689.50
2023-05-05T10:00:58.297Z,99691.50
2023-05-05T10:03:25.729Z,99694.50
2023-05-05T10:05:55.949Z,99691.50
2023-05-05T10:08:25.505Z,99700.81
2023-05-05T10:11:03.230Z,99695.72
2023-05-05T10:13:30.958Z,99708.38
2023-05-05T10:15:59.725Z,99697.28
2023-05-05T10:18:28.397Z,99689.94
2023-05-05T10:21:00.219Z,99684.97
2023-05-05T10:23:41.550Z,99690.41
2023-05-05T10:26:10.522Z,99685.84
2023-05-05T10:28:56.273Z,99688.97
2023-05-05T10:31:49.921Z,99689.06
2023-05-05T10:34:34.303Z,99684.31
2023-05-05T10:37:01.487Z,99677.63
2023-05-05T10:39:29.232Z,99683.16
2023-05-05T10:42:00.446Z,99674.28
2023-05-05T10:44:30.280Z,99669.50
2023-05-05T10:46:58.154Z,99665.50
2023-05-05T10:50:04.421Z,99666.38
2023-05-05T10:52:52.807Z,99661.03
2023-05-05T10:55:54.266Z,99652.28
2023-05-05T10:58:51.036Z,99646.28
2023-05-05T11:01:31.565Z,99643.09
2023-05-05T11:04:21.891Z,99640.28
2023-05-05T11:07:14.637Z,99642.59
2023-05-05T11:10:20.677Z,99645.97
2023-05-05T11:12:56.826Z,99639.97
2023-05-05T11:15:27.033Z,99637.41
2023-05-05T11:18:07.001Z,99642.38
2023-05-05T11:20:37.502Z,99632.94
2023-05-05T11:23:05.013Z,99630.72
2023-05-05T11:25:34.834Z,99625.03
2023-05-05T11:28:15.188Z,99627.38
2023-05-05T11:30:57.849Z,99618.44
2023-05-05T11:33:26.505Z,99613.63
2023-05-05T11:36:00.216Z,99609.88
2023-05-05T11:38:43.473Z,99596.19
2023-05-05T11:41:10.202Z,99600.47
2023-05-05T11:43:36.986Z,99600.91
2023-05-05T11:46:16.957Z,99592.31
2023-05-05T11:48:52.902Z,99601.63
2023-05-05T11:51:20.167Z,99601.34
2023-05-05T11:53:48.711Z,99593.34
2023-05-05T11:56:17.448Z,99600.56
2023-05-05T11:58:45.268Z,99584.22
2023-05-05T12:01:12.317Z,99587.06
2023-05-05T12:03:39.988Z,99585.72
2023-05-05T12:06:08.370Z,99583.47
2023-05-05T12:08:39.652Z,99585.34
2023-05-05T12:11:11.032Z,99579.34
2023-05-05T12:13:38.128Z,99586.66
2023-05-05T12:16:15.835Z,99583.44
2023-05-05T12:18:42.807Z,99575.69
2023-05-05T12:21:20.057Z,99575.13
2023-05-05T12:23:46.926Z,99578.25
2023-05-05T12:26:32.249Z,99574.69
2023-05-05T12:29:00.361Z,99570.50
2023-05-05T12:31:40.325Z,99573.16
2023-05-05T12:34:09.164Z,99568.66
2023-05-05T12:36:37.566Z,99564.59
2023-05-05T12:39:05.337Z,99561.16
2023-05-05T12:41:32.961Z,99559.28
2023-05-05T12:44:01.320Z,99554.63
2023-05-05T12:46:29.133Z,99549.72
2023-05-05T12:49:04.576Z,99544.69
2023-05-05T12:51:32.963Z,99542.56
2023-05-05T12:54:10.615Z,99542.69
2023-05-05T12:56:45.533Z,99542.44
2023-05-05T12:59:29.151Z,99543.53
2023-05-05T13:02:00.968Z,99530.19
2023-05-05T13:04:28.732Z,99533.72
2023-05-05T13:07:12.792Z,99524.13
2023-05-05T13:09:39.645Z,99520.44
2023-05-05T13:12:06.813Z,99516.28
2023-05-05T13:14:34.915Z,99517.50
2023-05-05T13:17:01.886Z,99518.97
2023-05-05T13:19:28.842Z,99509.97
2023-05-05T13:21:56.539Z,99508.91
2023-05-05T13:24:38.141Z,99505.84
2023-05-05T13:27:09.693Z,99502.03
2023-05-05T13:29:36.694Z,99500.13
2023-05-05T13:32:03.771Z,99491.41
2023-05-05T13:34:30.552Z,99490.50
2023-05-05T13:36:57.553Z,99485.97
2023-05-05T13:39:24.328Z,99475.72
2023-05-05T13:41:51.371Z,99478.75
2023-05-05T13:44:18.177Z,99472.63
2023-05-05T13:46:45.672Z,99469.66
2023-05-05T13:49:12.503Z,99460.81
2023-05-05T13:51:39.344Z,99450.84
2023-05-05T13:54:07.058Z,99444.31
2023-05-05T13:56:34.698Z,99451.13
2023-05-05T13:59:01.845Z,99442.78
2023-05-05T14:01:28.723Z,99440.88
2023-05-05T14:03:57.562Z,99437.06
2023-05-05T14:06:24.957Z,99434.81
2023-05-05T14:08:51.903Z,99428.41
2023-05-05T14:11:20.044Z,99442.09
2023-05-05T14:13:47.044Z,99432.22
2023-05-05T14:16:14.187Z,99434.09
2023-05-05T14:18:41.910Z,99426.91
2023-05-05T14:21:08.860Z,99427.38
2023-05-05T14:23:35.676Z,99423.94
2023-05-05T14:26:02.517Z,99428.13
2023-05-05T14:28:29.398Z,99427.03
2023-05-05T14:30:56.187Z,99414.13
2023-05-05T14:33:22.974Z,99427.47
2023-05-05T14:35:49.933Z,99418.38
2023-05-05T14:38:16.794Z,99411.91
2023-05-05T14:40:43.938Z,99412.31
2023-05-05T14:43:10.774Z,99411.59
2023-05-05T14:45:37.729Z,99410.97
2023-05-05T14:48:04.685Z,99411.50
2023-05-05T14:50:31.578Z,99410.75
2023-05-05T14:52:58.436Z,99418.75
2023-05-05T14:55:25.245Z,99416.09
2023-05-05T14:57:52.140Z,99407.66
2023-05-05T15:00:19.530Z,99405.34
2023-05-05T15:02:46.404Z,99410.69
2023-05-05T15:05:13.445Z,99404.22
2023-05-05T15:07:40.565Z,99410.34
2023-05-05T15:10:07.801Z,99410.31
2023-05-05T15:12:34.596Z,99399.94
2023-05-05T15:15:01.776Z,99408.81
2023-05-05T15:17:28.740Z,99406.13
2023-05-05T15:19:55.478Z,99401.63
2023-05-05T15:22:22.254Z,99408.84
2023-05-05T15:24:49.129Z,99402.41
2023-05-05T15:27:15.978Z,99407.38
2023-05-05T15:29:42.826Z,99410.09
2023-05-05T15:32:09.727Z,99411.69
2023-05-05T15:34:36.431Z,99407.16
2023-05-05T15:37:04.716Z,99401.09
2023-05-05T15:39:31.442Z,99404.88
2023-05-05T15:42:00.883Z,99405.28
2023-05-05T15:44:27.812Z,99402.63
2023-05-05T15:46:54.921Z,99414.50
2023-05-05T15:49:21.966Z,99396.53
2023-05-05T15:51:49.052Z,99395.78
2023-05-05T15:54:15.848Z,99395.78
2023-05-05T15:56:42.785Z,99392.31
2023-05-05T15:59:10.059Z,99397.66
2023-05-05T16:01:36.982Z,99395.41
2023-05-05T16:04:04.050Z,99392.78
2023-05-05T16:06:31.688Z,99393.19
2023-05-05T16:08:58.876Z,99391.38
2023-05-05T16:11:26.988Z,99389.16
2023-05-05T16:13:53.918Z,99391.25
2023-05-05T16:16:21.452Z,99384.22
2023-05-05T16:18:49.252Z,99386.50
2023-05-05T16:21:16.369Z,99381.94
2023-05-05T16:23:43.398Z,99372.13
2023-05-05T16:26:10.182Z,99372.63
2023-05-05T16:28:37.000Z,99367.25
2023-05-05T16:31:04.118Z,99368.44
2023-05-05T16:33:32.115Z,99373.81
2023-05-05T16:35:59.374Z,99365.34
2023-05-05T16:38:26.679Z,99371.06
2023-05-05T16:40:54.880Z,99370.88
2023-05-05T16:43:22.965Z,99367.69
2023-05-05T16:45:49.985Z,99370.97
2023-05-05T16:48:16.849Z,99362.78
2023-05-05T16:50:44.399Z,99356.50
2023-05-05T16:53:11.435Z,99362.50
2023-05-05T16:55:38.515Z,99356.69
2023-05-05T16:58:06.359Z,99355.44
2023-05-05T17:00:33.232Z,99359.16
2023-05-05T17:03:00.185Z,99351.06
2023-05-05T17:05:27.041Z,99352.53
2023-05-05T17:07:54.207Z,99354.03
2023-05-05T17:10:21.301Z,99359.28
2023-05-05T17:12:48.402Z,99350.81
2023-05-05T17:15:15.316Z,99350.38
2023-05-05T17:17:43.741Z,99348.03
2023-05-05T17:20:11.387Z,99349.91
2023-05-05T17:22:38.401Z,99348.72
2023-05-05T17:25:05.855Z,99342.94
2023-05-05T17:27:32.852Z,99346.34
2023-05-05T17:29:59.625Z,99346.28
2023-05-05T17:32:32.503Z,99347.38
2023-05-05T17:34:59.425Z,99350.00
2023-05-05T17:37:29.765Z,99356.06
2023-05-05T17:39:57.736Z,99351.44
2023-05-05T17:42:24.530Z,99350.97
2023-05-05T17:44:51.870Z,99349.03
2023-05-05T17:47:19.035Z,99352.84
2023-05-05T17:49:46.880Z,99356.94
2023-05-05T17:52:15.006Z,99360.00
2023-05-05T17:54:42.109Z,99358.81
2023-05-05T17:57:34.053Z,99354.19
2023-05-05T18:00:04.176Z,99356.81
2023-05-05T18:02:39.808Z,99361.34
2023-05-05T18:05:09.678Z,99356.72
2023-05-05T18:07:37.390Z,99355.50
2023-05-05T18:10:05.618Z,99352.00
2023-05-05T18:12:34.659Z,99361.09
2023-05-05T18:15:03.375Z,99357.25
2023-05-05T18:17:30.245Z,99367.50
2023-05-05T18:19:57.303Z,99363.59
2023-05-05T18:22:24.042Z,99364.69
2023-05-05T18:24:51.937Z,99372.63
2023-05-05T18:27:20.494Z,99368.78
2023-05-05T18:29:47.844Z,99374.00
2023-05-05T18:32:14.624Z,99374.34
2023-05-05T18:34:41.485Z,99378.91
2023-05-05T18:37:08.459Z,99371.25
2023-05-05T18:39:35.369Z,99373.84
2023-05-05T18:42:02.185Z,99384.06
2023-05-05T18:44:29.214Z,99390.13
2023-05-05T18:46:56.291Z,99386.25
2023-05-05T18:49:23.154Z,99388.88
2023-05-05T18:51:49.943Z,99394.50
2023-05-05T18:54:16.716Z,99396.00
2023-05-05T18:56:44.319Z,99396.31
2023-05-05T18:59:11.428Z,99394.38
2023-05-05T19:01:38.540Z,99389.75
2023-05-05T19:04:10.444Z,99395.03
2023-05-05T19:06:43.317Z,99394.97
2023-05-05T19:09:10.910Z,99390.66
2023-05-05T19:11:37.617Z,99394.84
2023-05-05T19:14:04.476Z,99396.31
2023-05-05T19:16:31.249Z,99395.09
2023-05-05T19:18:58.181Z,99396.94
2023-05-05T19:21:27.113Z,99402.97
2023-05-05T19:23:53.947Z,99396.81
2023-05-05T19:26:20.701Z,99397.50
2023-05-05T19:28:47.513Z,99401.22
2023-05-05T19:31:14.902Z,99393.50
2023-05-05T19:33:41.734Z,99395.25
2023-05-05T19:36:08.559Z,99392.09
2023-05-05T19:38:35.382Z,99392.34
2023-05-05T19:41:02.271Z,99387.31
2023-05-05T19:43:32.451Z,99390.31
2023-05-05T19:45:59.418Z,99387.22
2023-05-05T19:48:26.408Z,99391.72
2023-05-05T19:50:53.387Z,99380.56
2023-05-05T19:53:20.273Z,99383.84
2023-05-05T19:55:47.142Z,99389.00
2023-05-05T19:58:14.993Z,99386.97
2023-05-05T20:00:42.337Z,99376.66
2023-05-05T20:03:09.323Z,99380.47
2023-05-05T20:05:37.006Z,99377.28
2023-05-05T20:08:04.027Z,99378.06
2023-05-05T20:10:30.980Z,99377.28
2023-05-05T20:12:57.942Z,99373.06
2023-05-05T20:15:24.751Z,99369.22
2023-05-05T20:17:51.680Z,99376.44
2023-05-05T20:20:21.448Z,99370.94
2023-05-05T20:22:49.653Z,99371.16
2023-05-05T20:25:17.376Z,99366.75
2023-05-05T20:27:44.831Z,99357.22
2023-05-05T20:30:12.018Z,99364.78
2023-05-05T20:32:39.712Z,99356.38
2023-05-05T20:35:07.178Z,99352.50
2023-05-05T20:37:34.047Z,99358.41
2023-05-05T20:40:00.898Z,99352.22
2023-05-05T20:42:28.045Z,99356.72
2023-05-05T20:44:55.051Z,99353.59
2023-05-05T20:47:22.005Z,99359.63
2023-05-05T20:49:49.439Z,99357.31
2023-05-05T20:52:16.141Z,99355.31
2023-05-05T20:54:43.041Z,99352.59
2023-05-05T20:57:09.859Z,99355.59
2023-05-05T20:59:37.867Z,99357.41
2023-05-05T21:02:04.840Z,99357.63
2023-05-05T21:04:31.848Z,99362.09
2023-05-05T21:06:58.715Z,99361.25
2023-05-05T21:09:25.774Z,99355.84
2023-05-05T21:11:52.730Z,99347.00
2023-05-05T21:14:19.627Z,99344.16
2023-05-05T21:16:46.520Z,99350.94
2023-05-05T21:19:13.496Z,99345.06
2023-05-05T21:21:40.380Z,99347.31
2023-05-05T21:24:08.183Z,99346.09
2023-05-05T21:26:35.131Z,99348.00
2023-05-05T21:29:01.936Z,99343.34
2023-05-05T21:31:29.988Z,99349.34
2023-05-05T21:33:57.338Z,99345.41
2023-05-05T21:36:24.383Z,99339.56
2023-05-05T21:38:51.177Z,99329.94
2023-05-05T21:41:17.906Z,99337.81
2023-05-05T21:43:44.977Z,99324.31
2023-05-05T21:46:11.810Z,99332.00
2023-05-05T21:48:39.380Z,99334.09
2023-05-05T21:51:06.336Z,99329.81
2023-05-05T21:53:33.146Z,99328.94
2023-05-05T21:56:00.216Z,99334.56
2023-05-05T21:58:27.086Z,99336.47
2023-05-05T22:00:54.024Z,99339.88
2023-05-05T22:03:21.661Z,99340.25
2023-05-05T22:05:48.664Z,99335.16
2023-05-05T22:08:15.611Z,99332.72
2023-05-05T22:10:42.930Z,99339.38
2023-05-05T22:13:10.754Z,99337.75
2023-05-05T22:15:45.821Z,99329.66
2023-05-05T22:18:14.780Z,99331.09
2023-05-05T22:20:41.844Z,99329.47
2023-05-05T22:23:08.758Z,99326.81
2023-05-05T22:25:35.760Z,99328.59
2023-05-05T22:28:02.683Z,99322.81
2023-05-05T22:30:29.529Z,99317.00
2023-05-05T22:32:56.386Z,99321.84
2023-05-05T22:35:23.248Z,99310.47
2023-05-05T22:37:49.993Z,99316.53
2023-05-05T22:40:16.847Z,99318.75
2023-05-05T22:42:43.782Z,99305.69
2023-05-05T22:45:11.351Z,99301.63
2023-05-05T22:47:38.937Z,99293.97
2023-05-05T22:50:06.298Z,99305.59
2023-05-05T22:52:33.184Z,99310.25
2023-05-05T22:54:59.931Z,99305.94
2023-05-05T22:57:26.898Z,99317.09
2023-05-05T22:59:53.772Z,99305.03
2023-05-05T23:02:20.519Z,99311.22
2023-05-05T23:04:47.746Z,99304.78
2023-05-05T23:07:14.505Z,99300.59
2023-05-05T23:09:42.110Z,99295.19
2023-05-05T23:12:08.876Z,99295.53
2023-05-05T23:14:36.105Z,99286.34
2023-05-05T23:20:19.109Z,99288.56
2023-05-05T23:22:46.097Z,99287.38
2023-05-05T23:25:12.992Z,99288.03
2023-05-05T23:27:40.062Z,99281.16
2023-05-05T23:30:08.889Z,99275.97
2023-05-05T23:32:35.789Z,99276.03
2023-05-05T23:35:02.718Z,99276.53
2023-05-05T23:37:29.646Z,99268.91
2023-05-05T23:39:56.939Z,99266.88
2023-05-05T23:42:24.501Z,99260.34
2023-05-05T23:44:51.661Z,99261.78
2023-05-05T23:47:18.461Z,99265.91
2023-05-05T23:49:45.445Z,99250.19
2023-05-05T23:52:13.361Z,99248.88
2023-05-05T23:54:40.640Z,99248.97
2023-05-05T23:57:07.426Z,99250.66
2023-05-05T23:59:34.960Z,99240.59
